Time;durP1;ratioP1;P1;durP2;ratioP2;P2;SDS_P1;SDS_P2;PMS_P1;PMS_P2;Temp;Humidity;BMP_temperature;BMP_pressure;BME280_temperature;BME280_humidity;BME280_pressure;Samples;Min_cycle;Max_cycle;Signal;HPM_P1;HPM_P2
2021/01/03 00:00:28;;;;;;;74.60;23.23;;;;;;;-0.71;79.85;95424.06;5068500;28;20044;-66
2021/01/03 00:02:54;;;;;;;87.93;25.45;;;;;;;-0.63;79.74;95422.69;5067977;28;20053;-66
2021/01/03 00:05:23;;;;;;;69.78;22.20;;;;;;;-0.62;79.58;95424.31;5068518;28;20083;-66
2021/01/03 00:07:49;;;;;;;79.57;24.88;;;;;;;-0.58;79.60;95425.34;5068082;28;20113;-65
2021/01/03 00:10:15;;;;;;;71.07;22.90;;;;;;;-0.55;79.47;95419.47;5068573;28;20082;-66
2021/01/03 00:12:41;;;;;;;77.10;24.05;;;;;;;-0.59;79.57;95418.41;5068716;28;20071;-66
2021/01/03 00:15:11;;;;;;;68.57;22.27;;;;;;;-0.62;79.78;95425.13;5068196;28;20725;-66
2021/01/03 00:17:37;;;;;;;70.57;23.02;;;;;;;-0.64;79.89;95431.78;5067651;28;20049;-66
2021/01/03 00:20:06;;;;;;;67.78;24.33;;;;;;;-0.59;79.82;95434.44;5048034;28;20053;-66
2021/01/03 00:22:32;;;;;;;77.38;24.20;;;;;;;-0.60;79.78;95427.50;5048290;28;20052;-66
2021/01/03 00:24:57;;;;;;;68.25;22.75;;;;;;;-0.51;79.94;95436.59;5047693;28;20085;-66
2021/01/03 00:27:23;;;;;;;76.32;23.75;;;;;;;-0.48;79.80;95438.72;5048148;28;20060;-66
2021/01/03 00:29:49;;;;;;;75.38;24.30;;;;;;;-0.46;79.72;95439.25;5047548;28;20056;-66
2021/01/03 00:32:17;;;;;;;84.28;25.90;;;;;;;-0.74;80.18;95437.13;5048224;28;20053;-66
2021/01/03 00:34:43;;;;;;;70.60;24.33;;;;;;;-0.71;80.28;95433.94;5056636;28;20052;-66
2021/01/03 00:37:09;;;;;;;79.95;24.48;;;;;;;-0.69;80.37;95434.47;5067813;28;20049;-66
2021/01/03 00:39:34;;;;;;;75.22;23.67;;;;;;;-0.74;80.49;95435.28;5067572;28;20194;-66
2021/01/03 00:42:01;;;;;;;78.05;23.85;;;;;;;-0.70;80.76;95430.19;5067723;28;20056;-66
2021/01/03 00:44:27;;;;;;;86.57;23.17;;;;;;;-0.61;80.69;95425.91;5067468;28;20049;-65
2021/01/03 00:46:53;;;;;;;73.50;24.17;;;;;;;-0.60;80.42;95420.28;5067707;28;20135;-66
2021/01/03 00:49:20;;;;;;;78.28;25.15;;;;;;;-0.68;80.70;95409.31;5052770;28;20486;-66
2021/01/03 00:51:46;;;;;;;76.13;24.55;;;;;;;-0.72;81.04;95417.09;5047039;28;20458;-66
2021/01/03 00:54:12;;;;;;;74.32;22.58;;;;;;;-0.65;81.06;95422.16;5047572;28;20083;-66
2021/01/03 00:56:38;;;;;;;78.28;23.38;;;;;;;-0.62;81.09;95429.66;5047188;28;20390;-66
2021/01/03 00:59:04;;;;;;;82.82;23.90;;;;;;;-0.66;81.02;95424.03;5047813;28;20052;-66
2021/01/03 01:01:30;;;;;;;81.18;24.60;;;;;;;-0.83;81.63;95424.34;5058501;28;20052;-66
2021/01/03 01:03:56;;;;;;;79.20;26.33;;;;;;;-0.88;82.06;95429.69;5067817;28;20569;-66
2021/01/03 01:06:23;;;;;;;89.13;27.45;;;;;;;-1.00;82.50;95434.47;5066669;28;20052;-66
2021/01/03 01:08:51;;;;;;;97.43;26.77;;;;;;;-1.10;83.17;95434.47;5067055;28;20620;-66
2021/01/03 01:11:17;;;;;;;82.47;25.23;;;;;;;-1.03;83.27;95434.22;5066770;28;20052;-66
2021/01/03 01:13:43;;;;;;;85.00;26.40;;;;;;;-1.04;83.20;95433.44;5066940;28;20111;-66
2021/01/03 01:16:09;;;;;;;87.20;27.77;;;;;;;-1.05;83.27;95437.16;5067071;28;20045;-66
2021/01/03 01:18:36;;;;;;;84.40;25.70;;;;;;;-0.99;83.25;95435.28;5057989;28;20049;-65
2021/01/03 01:21:03;;;;;;;79.15;26.33;;;;;;;-1.09;83.07;95441.44;5046872;28;20512;-67
2021/01/03 01:23:30;;;;;;;91.30;27.98;;;;;;;-1.32;83.78;95448.88;5047651;28;20068;-66
2021/01/03 01:25:56;;;;;;;77.72;25.55;;;;;;;-1.44;84.70;95444.88;5050887;28;20037;-66
2021/01/03 01:28:21;;;;;;;82.13;25.95;;;;;;;-1.34;84.76;95444.88;5049692;28;20637;-66
2021/01/03 01:30:47;;;;;;;96.95;27.08;;;;;;;-1.22;84.69;95447.28;5050381;28;20041;-66
2021/01/03 01:33:13;;;;;;;94.53;26.92;;;;;;;-1.34;84.79;95440.34;5049905;28;20041;-66
2021/01/03 01:35:39;;;;;;;74.75;24.92;;;;;;;-1.23;84.80;95440.34;5050029;28;20056;-66
2021/01/03 01:38:06;;;;;;;84.75;25.92;;;;;;;-1.43;85.13;95451.81;5049969;28;20051;-66
2021/01/03 01:40:36;;;;;;;76.90;24.55;;;;;;;-1.37;85.29;95451.53;5049749;28;20044;-66
2021/01/03 01:43:03;;;;;;;71.85;22.90;;;;;;;-1.27;85.25;95449.97;5050438;28;20040;-66
2021/01/03 01:45:32;;;;;;;78.85;24.00;;;;;;;-1.34;85.17;95445.69;5049222;28;20056;-66
2021/01/03 01:48:01;;;;;;;76.45;23.90;;;;;;;-1.31;85.22;95444.34;5049597;28;20041;-66
2021/01/03 01:50:35;;;;;;;72.88;23.35;;;;;;;-1.22;85.05;95445.41;5048677;28;20445;-66
2021/01/03 01:53:03;;;;;;;73.70;23.95;;;;;;;-1.15;84.90;95445.16;5050063;28;20282;-66
2021/01/03 01:55:34;;;;;;;75.05;24.00;;;;;;;-1.11;84.67;95443.56;5049739;28;20064;-65
2021/01/03 01:58:07;;;;;;;77.97;24.55;;;;;;;-1.12;84.60;95447.31;5049694;28;20638;-66
2021/01/03 02:00:35;;;;;;;74.43;23.67;;;;;;;-1.23;84.70;95448.38;5050453;28;20099;-66
2021/01/03 02:03:06;;;;;;;72.13;23.73;;;;;;;-1.09;84.75;95452.94;5048519;28;20547;-67
2021/01/03 02:05:37;;;;;;;70.82;24.15;;;;;;;-1.06;84.51;95456.91;5050168;28;20045;-66
2021/01/03 02:08:09;;;;;;;73.35;23.45;;;;;;;-0.95;84.37;95457.72;5048336;28;20428;-66
2021/01/03 02:10:39;;;;;;;76.07;24.33;;;;;;;-0.96;84.04;95448.91;5050014;28;20049;-66
2021/01/03 02:13:10;;;;;;;70.13;24.13;;;;;;;-1.00;84.06;95445.16;5049266;28;20056;-66
2021/01/03 02:15:38;;;;;;;76.22;25.10;;;;;;;-1.16;84.29;95446.22;5049809;28;20470;-66
2021/01/03 02:18:07;;;;;;;78.47;24.58;;;;;;;-1.14;84.70;95441.44;5068221;28;20044;-66
2021/01/03 02:20:40;;;;;;;75.60;23.73;;;;;;;-1.24;84.95;95444.09;5069390;28;20045;-66
2021/01/03 02:23:08;;;;;;;77.20;26.05;;;;;;;-1.29;85.25;95441.41;5070165;28;20052;-66
2021/01/03 02:25:35;;;;;;;74.57;23.27;;;;;;;-1.17;85.33;95439.28;5069154;28;20048;-65
2021/01/03 02:28:12;;;;;;;82.00;24.48;;;;;;;-1.11;85.34;95438.22;5069883;28;20053;-70
2021/01/03 02:30:39;;;;;;;82.78;25.02;;;;;;;-1.25;85.55;95439.81;5069814;28;20049;-66
2021/01/03 02:33:10;;;;;;;78.63;24.85;;;;;;;-1.26;85.61;95430.19;5069244;28;20048;-66
2021/01/03 02:35:40;;;;;;;76.15;23.88;;;;;;;-1.17;85.62;95431.28;5069818;28;20051;-66
2021/01/03 02:38:08;;;;;;;74.25;24.38;;;;;;;-1.09;85.55;95436.09;5068924;28;20037;-67
2021/01/03 02:40:34;;;;;;;74.55;24.25;;;;;;;-0.99;85.09;95430.75;5070027;28;20055;-66
2021/01/03 02:43:00;;;;;;;71.93;24.10;;;;;;;-0.88;84.76;95435.03;5068971;28;20459;-66
2021/01/03 02:45:28;;;;;;;76.80;23.75;;;;;;;-0.87;84.62;95441.97;5070027;28;20037;-66
2021/01/03 02:48:01;;;;;;;73.38;23.58;;;;;;;-0.92;84.20;95436.63;5067789;28;20098;-66
2021/01/03 02:50:27;;;;;;;66.20;23.63;;;;;;;-0.86;84.38;95435.56;5069625;28;20045;-66
2021/01/03 02:52:54;;;;;;;65.18;21.42;;;;;;;-0.79;84.22;95437.94;5069077;28;20060;-66
2021/01/03 02:55:20;;;;;;;68.85;22.33;;;;;;;-0.86;84.24;95440.91;5069194;28;20056;-66
2021/01/03 02:57:48;;;;;;;68.50;23.17;;;;;;;-0.99;84.16;95436.09;5069579;28;20055;-66
2021/01/03 03:00:20;;;;;;;64.63;22.70;;;;;;;-0.90;84.43;95444.38;5068847;28;20083;-66
2021/01/03 03:02:47;;;;;;;76.65;23.95;;;;;;;-0.95;84.53;95442.50;5070967;28;20048;-66
2021/01/03 03:05:14;;;;;;;75.32;23.33;;;;;;;-0.86;84.28;95435.56;5071941;28;20506;-66
2021/01/03 03:07:40;;;;;;;66.30;23.42;;;;;;;-0.89;84.39;95436.09;5073702;28;20057;-66
2021/01/03 03:10:07;;;;;;;73.97;23.65;;;;;;;-0.96;84.34;95424.88;5071881;28;20050;-66
2021/01/03 03:12:33;;;;;;;75.15;23.40;;;;;;;-0.82;84.34;95431.28;5073295;28;20048;-66
2021/01/03 03:15:00;;;;;;;64.53;22.25;;;;;;;-0.71;84.15;95425.94;5072085;28;20071;-66
2021/01/03 03:17:25;;;;;;;66.75;22.92;;;;;;;-0.68;83.78;95433.38;5071041;28;20048;-66
2021/01/03 03:19:51;;;;;;;65.47;21.67;;;;;;;-0.59;83.70;95423.75;5072771;28;20052;-66
2021/01/03 03:22:17;;;;;;;72.72;22.70;;;;;;;-0.77;83.59;95432.34;5072171;28;20130;-66
2021/01/03 03:24:43;;;;;;;73.32;23.40;;;;;;;-0.90;83.95;95423.78;5072878;28;20052;-66
2021/01/03 03:27:09;;;;;;;63.30;22.35;;;;;;;-0.86;84.11;95432.88;5071701;28;20051;-66
2021/01/03 03:29:35;;;;;;;69.07;23.98;;;;;;;-0.89;84.07;95425.41;5072996;28;20068;-66
2021/01/03 03:32:03;;;;;;;68.78;21.88;;;;;;;-0.89;84.13;95433.44;5071414;28;20045;-67
2021/01/03 03:34:28;;;;;;;68.22;22.10;;;;;;;-0.84;84.20;95425.38;5072908;28;20055;-66
2021/01/03 03:36:56;;;;;;;69.20;23.52;;;;;;;-0.79;83.85;95417.34;5071980;28;20048;-66
2021/01/03 03:39:22;;;;;;;76.38;23.27;;;;;;;-0.70;83.78;95422.97;5072397;28;20059;-66
2021/01/03 03:41:48;;;;;;;63.17;22.10;;;;;;;-0.68;83.73;95430.72;5072155;28;20564;-66
2021/01/03 03:44:14;;;;;;;70.85;23.15;;;;;;;-0.75;83.57;95419.50;5071938;28;20416;-66
2021/01/03 03:46:40;;;;;;;63.00;20.63;;;;;;;-0.65;83.54;95420.28;5071020;28;20045;-66
2021/01/03 03:49:07;;;;;;;68.30;23.50;;;;;;;-0.57;83.31;95421.63;5071454;28;20052;-66
2021/01/03 03:51:33;;;;;;;66.05;23.27;;;;;;;-0.80;83.24;95422.97;5072660;28;20056;-66
2021/01/03 03:53:59;;;;;;;70.53;24.08;;;;;;;-0.82;83.54;95420.59;5071437;28;20075;-66
2021/01/03 03:56:25;;;;;;;75.82;24.42;;;;;;;-0.95;84.10;95426.47;5072402;28;20045;-66
2021/01/03 03:58:51;;;;;;;67.70;22.52;;;;;;;-0.85;84.08;95421.13;5071457;28;20052;-66
2021/01/03 04:01:17;;;;;;;77.78;22.67;;;;;;;-0.90;84.03;95417.63;5072272;28;20044;-66
2021/01/03 04:03:43;;;;;;;66.97;22.73;;;;;;;-0.84;84.16;95417.38;5071475;28;20079;-66
2021/01/03 04:06:10;;;;;;;67.20;23.17;;;;;;;-0.72;83.87;95417.09;5072252;28;20048;-66
2021/01/03 04:08:37;;;;;;;70.57;23.65;;;;;;;-0.72;83.59;95411.75;5072603;28;20052;-66
2021/01/03 04:11:03;;;;;;;69.20;22.75;;;;;;;-0.71;83.31;95404.53;5071167;28;20495;-67
2021/01/03 04:13:29;;;;;;;68.97;22.73;;;;;;;-0.66;83.22;95412.56;5071620;28;20056;-66
2021/01/03 04:15:55;;;;;;;62.08;21.63;;;;;;;-0.63;83.25;95417.34;5069931;28;20408;-66
2021/01/03 04:18:21;;;;;;;66.63;23.48;;;;;;;-0.59;83.02;95413.88;5071960;28;20053;-66
2021/01/03 04:20:47;;;;;;;68.10;22.33;;;;;;;-0.51;82.99;95425.09;5070970;28;20048;-66
2021/01/03 04:23:14;;;;;;;69.88;23.15;;;;;;;-0.55;82.64;95414.94;5071931;28;20131;-66
2021/01/03 04:25:40;;;;;;;64.78;22.58;;;;;;;-0.64;82.58;95413.88;5070949;28;20416;-66
2021/01/03 04:28:06;;;;;;;65.03;21.27;;;;;;;-0.63;82.79;95412.00;5071485;28;20047;-66
2021/01/03 04:30:32;;;;;;;64.10;21.48;;;;;;;-0.64;82.64;95405.06;5071174;28;20051;-66
2021/01/03 04:32:58;;;;;;;60.17;22.73;;;;;;;-0.62;82.75;95413.63;5071390;28;20116;-66
2021/01/03 04:35:24;;;;;;;67.50;21.40;;;;;;;-0.55;82.57;95411.47;5070719;28;20052;-66
2021/01/03 04:37:52;;;;;;;59.13;22.17;;;;;;;-0.56;82.50;95413.34;5071192;28;20048;-66
2021/01/03 04:40:21;;;;;;;68.28;22.88;;;;;;;-0.50;82.59;95413.31;5071056;28;20135;-66
2021/01/03 04:42:52;;;;;;;61.15;21.23;;;;;;;-0.46;82.44;95411.72;5071062;28;20055;-66
2021/01/03 04:45:24;;;;;;;61.97;22.05;;;;;;;-0.46;82.24;95406.38;5071311;28;20059;-66
2021/01/03 04:47:55;;;;;;;61.13;20.25;;;;;;;-0.42;82.08;95413.56;5069159;28;20045;-66
2021/01/03 04:50:37;;;;;;;56.72;21.13;;;;;;;-0.36;82.03;95412.50;5071153;28;20059;-66
2021/01/03 04:53:15;;;;;;;57.65;20.55;;;;;;;-0.36;81.82;95409.03;5070302;28;20109;-67
2021/01/03 04:55:47;;;;;;;59.50;20.45;;;;;;;-0.33;81.70;95414.59;5070860;28;20491;-66
2021/01/03 04:58:25;;;;;;;53.95;19.13;;;;;;;-0.31;81.68;95409.81;5071000;28;20052;-66
2021/01/03 05:01:12;;;;;;;64.20;20.02;;;;;;;-0.39;81.48;95410.34;5070354;28;20052;-66
2021/01/03 05:04:07;;;;;;;56.05;19.77;;;;;;;-0.31;81.68;95409.00;5071303;28;20048;-66
2021/01/03 05:06:35;;;;;;;59.92;20.42;;;;;;;-0.25;81.54;95409.78;5068895;28;20072;-66
2021/01/03 05:09:03;;;;;;;57.30;19.25;;;;;;;-0.22;81.62;95420.72;5070424;28;20127;-66
2021/01/03 05:11:41;;;;;;;55.05;19.40;;;;;;;-0.15;81.80;95409.75;5070857;28;20101;-66
2021/01/03 05:14:22;;;;;;;56.53;18.45;;;;;;;-0.16;81.34;95414.28;5069685;28;20044;-66
2021/01/03 05:16:52;;;;;;;58.53;20.58;;;;;;;-0.22;81.16;95415.38;5069671;28;20049;-66
2021/01/03 05:19:18;;;;;;;59.63;19.90;;;;;;;-0.29;81.37;95418.34;5069796;28;20071;-66
2021/01/03 05:21:46;;;;;;;54.05;19.77;;;;;;;-0.36;81.60;95415.16;5070666;28;20499;-66
2021/01/03 05:24:12;;;;;;;57.65;19.17;;;;;;;-0.30;81.72;95418.63;5069976;28;20052;-66
2021/01/03 05:26:39;;;;;;;50.45;18.75;;;;;;;-0.31;81.55;95423.19;5069363;28;20045;-66
2021/01/03 05:29:06;;;;;;;51.47;18.95;;;;;;;-0.23;81.46;95418.34;5070312;28;20048;-66
2021/01/03 05:31:33;;;;;;;53.60;19.67;;;;;;;-0.32;81.37;95413.53;5070053;28;20450;-66
2021/01/03 05:34:01;;;;;;;59.03;19.92;;;;;;;-0.33;81.62;95416.47;5071032;28;20044;-66
2021/01/03 05:36:32;;;;;;;55.60;18.55;;;;;;;-0.38;81.73;95419.97;5069539;28;20044;-66
2021/01/03 05:38:58;;;;;;;56.53;18.20;;;;;;;-0.30;81.81;95422.09;5071015;28;20041;-66
2021/01/03 05:41:37;;;;;;;54.05;19.13;;;;;;;-0.25;81.76;95420.50;5069304;28;20511;-66
2021/01/03 05:44:11;;;;;;;52.33;18.20;;;;;;;-0.25;81.63;95423.16;5069826;28;20438;-66
2021/01/03 05:46:42;;;;;;;55.60;19.13;;;;;;;-0.39;82.12;95429.06;5068908;28;20400;-66
2021/01/03 05:49:12;;;;;;;58.88;19.55;;;;;;;-0.36;82.03;95433.09;5069521;28;20504;-66
2021/01/03 05:51:42;;;;;;;55.63;18.85;;;;;;;-0.37;82.20;95442.16;5070677;28;20049;-66
2021/01/03 05:54:11;;;;;;;59.00;19.48;;;;;;;-0.34;82.03;95447.78;5068925;28;20054;-66
2021/01/03 05:56:38;;;;;;;62.17;19.88;;;;;;;-0.29;81.99;95439.75;5070905;28;20044;-66
2021/01/03 05:59:04;;;;;;;56.30;19.40;;;;;;;-0.21;82.06;95445.59;5069006;28;20040;-67
2021/01/03 06:01:34;;;;;;;59.00;20.90;;;;;;;-0.22;81.72;95450.16;5070365;28;20124;-66
2021/01/03 06:04:04;;;;;;;59.03;20.58;;;;;;;-0.23;81.94;95445.09;5069911;28;20045;-66
2021/01/03 06:07:00;;;;;;;65.75;20.95;;;;;;;-0.25;82.00;95445.38;5069792;28;20423;-66
2021/01/03 06:09:34;;;;;;;62.92;21.40;;;;;;;-0.37;81.96;95458.22;5069990;28;20044;-66
2021/01/03 06:12:03;;;;;;;64.85;20.35;;;;;;;-0.44;82.38;95457.69;5069120;28;20122;-66
2021/01/03 06:14:29;;;;;;;62.28;21.55;;;;;;;-0.38;82.20;95446.72;5070536;28;20047;-66
2021/01/03 06:17:05;;;;;;;70.50;21.02;;;;;;;-0.34;82.07;95455.81;5067899;28;20082;-66
2021/01/03 06:19:35;;;;;;;60.25;20.35;;;;;;;-0.28;81.78;95452.03;5070037;28;20044;-66
2021/01/03 06:22:17;;;;;;;59.28;22.02;;;;;;;-0.30;81.62;95459.56;5069816;28;20117;-69
2021/01/03 06:24:43;;;;;;;60.65;21.05;;;;;;;-0.42;81.68;95451.00;5069415;28;20057;-66
2021/01/03 06:27:19;;;;;;;60.25;21.42;;;;;;;-0.30;81.53;95450.72;5070037;28;20071;-66
2021/01/03 06:29:50;;;;;;;57.58;21.17;;;;;;;-0.23;81.37;95448.56;5069226;28;20468;-66
2021/01/03 06:33:02;;;;;;;60.00;23.05;;;;;;;-0.21;81.14;95440.25;5069618;28;20052;-66
2021/01/03 06:35:32;;;;;;;63.85;22.10;;;;;;;-0.33;80.84;95444.03;5069634;28;20040;-66
2021/01/03 06:38:07;;;;;;;61.90;21.60;;;;;;;-0.31;80.96;95446.47;5072212;28;20053;-65
2021/01/03 06:40:36;;;;;;;60.63;22.55;;;;;;;-0.25;80.76;95449.91;5073953;28;20049;-66
2021/01/03 06:43:32;;;;;;;54.83;20.67;;;;;;;-0.24;80.81;95446.16;5072260;28;20052;-67
2021/01/03 06:46:31;;;;;;;62.78;21.70;;;;;;;-0.20;80.67;95447.22;5072472;28;20055;-66
2021/01/03 06:49:11;;;;;;;59.50;22.25;;;;;;;-0.16;80.37;95456.28;5073360;28;20037;-66
2021/01/03 06:52:12;;;;;;;70.15;23.10;;;;;;;-0.23;80.65;95463.81;5070353;28;20129;-66
2021/01/03 06:55:08;;;;;;;60.35;22.38;;;;;;;-0.24;80.58;95468.38;5073611;28;20055;-66
2021/01/03 06:58:02;;;;;;;56.95;23.13;;;;;;;-0.23;80.65;95469.97;5066678;28;20044;-66
2021/01/03 07:00:37;;;;;;;62.20;22.98;;;;;;;-0.24;80.69;95472.91;5072419;28;20513;-66
2021/01/03 07:03:09;;;;;;;62.22;22.90;;;;;;;-0.40;80.82;95472.94;5073354;28;20075;-66
2021/01/03 07:05:36;;;;;;;65.65;22.10;;;;;;;-0.48;80.99;95472.69;5072448;28;20431;-66
2021/01/03 07:08:06;;;;;;;60.90;23.30;;;;;;;-0.43;81.21;95470.81;5072864;28;20065;-67
2021/01/03 07:10:35;;;;;;;63.25;24.15;;;;;;;-0.58;81.37;95479.63;5072791;28;20052;-66
2021/01/03 07:13:02;;;;;;;62.90;22.27;;;;;;;-0.45;81.41;95482.84;5072462;28;20044;-68
2021/01/03 07:15:40;;;;;;;59.38;23.30;;;;;;;-0.41;81.13;95490.06;5072900;28;20049;-66
2021/01/03 07:18:24;;;;;;;59.83;23.10;;;;;;;-0.40;81.18;95486.31;5070342;28;20102;-67
2021/01/03 07:20:58;;;;;;;59.42;23.50;;;;;;;-0.42;80.73;95483.09;5073550;28;20041;-66
2021/01/03 07:23:33;;;;;;;57.97;21.73;;;;;;;-0.33;80.68;95491.38;5071951;28;20044;-66
2021/01/03 07:26:09;;;;;;;58.88;22.73;;;;;;;-0.27;80.64;95484.94;5072780;28;20558;-66
2021/01/03 07:28:36;;;;;;;58.10;22.50;;;;;;;-0.21;80.53;95491.09;5072429;28;20407;-66
2021/01/03 07:31:10;;;;;;;53.92;22.42;;;;;;;-0.23;80.23;95501.28;5072147;28;20049;-67
2021/01/03 07:33:55;;;;;;;57.20;23.42;;;;;;;-0.38;80.37;95500.22;5072954;28;20056;-66
2021/01/03 07:36:38;;;;;;;66.85;22.60;;;;;;;-0.41;80.77;95500.78;5071413;28;20052;-66
2021/01/03 07:39:11;;;;;;;61.97;23.15;;;;;;;-0.42;80.82;95503.69;5072647;28;20044;-66
2021/01/03 07:41:38;;;;;;;58.65;22.65;;;;;;;-0.46;80.48;95502.66;5072168;28;20098;-66
2021/01/03 07:44:06;;;;;;;62.92;22.90;;;;;;;-0.52;80.82;95515.22;5071968;28;20726;-67
2021/01/03 07:46:54;;;;;;;62.80;24.60;;;;;;;-0.45;80.90;95515.75;5070927;28;20044;-66
2021/01/03 07:49:43;;;;;;;62.10;23.58;;;;;;;-0.47;81.12;95512.53;5065981;28;20045;-66
2021/01/03 07:52:40;;;;;;;71.00;23.65;;;;;;;-0.46;81.32;95514.16;5072350;28;20079;-66
2021/01/03 07:55:14;;;;;;;62.00;23.55;;;;;;;-0.33;81.05;95502.88;5071364;28;20056;-66
2021/01/03 07:57:40;;;;;;;64.95;24.42;;;;;;;-0.20;80.78;95506.91;5071963;28;20510;-66
2021/01/03 08:00:07;;;;;;;63.15;23.65;;;;;;;-0.29;80.55;95508.50;5071927;28;20045;-66
2021/01/03 08:02:37;;;;;;;64.70;24.23;;;;;;;-0.20;80.68;95508.78;5071634;28;20048;-66
2021/01/03 08:05:04;;;;;;;56.90;22.92;;;;;;;-0.08;80.38;95509.28;5072073;28;20098;-66
2021/01/03 08:07:30;;;;;;;60.17;22.70;;;;;;;0.01;80.24;95507.66;5071250;28;20105;-66
2021/01/03 08:10:06;;;;;;;59.45;23.15;;;;;;;0.05;79.87;95518.59;5072541;28;20056;-66
2021/01/03 08:12:37;;;;;;;58.05;23.20;;;;;;;0.09;79.72;95506.28;5071864;28;20488;-66
2021/01/03 08:15:08;;;;;;;56.17;22.08;;;;;;;0.15;79.87;95515.91;5071541;28;20059;-66
2021/01/03 08:17:37;;;;;;;54.67;22.42;;;;;;;0.17;79.77;95511.88;5070341;28;20070;-66
2021/01/03 08:20:07;;;;;;;57.42;22.95;;;;;;;0.22;79.57;95509.19;5070898;28;20056;-66
2021/01/03 08:22:33;;;;;;;62.08;23.92;;;;;;;0.17;79.34;95509.22;5071698;28;20071;-66
2021/01/03 08:25:02;;;;;;;61.72;22.33;;;;;;;0.23;79.43;95520.69;5070742;28;20056;-66
2021/01/03 08:27:39;;;;;;;64.63;22.60;;;;;;;0.19;79.35;95520.44;5071985;28;20036;-66
2021/01/03 08:30:10;;;;;;;71.20;24.70;;;;;;;0.13;79.36;95526.88;5070500;28;20048;-67
2021/01/03 08:32:39;;;;;;;72.25;24.92;;;;;;;0.10;79.75;95527.41;5071538;28;20044;-66
2021/01/03 08:35:09;;;;;;;61.50;23.27;;;;;;;0.02;79.98;95536.00;5070522;28;20044;-66
2021/01/03 08:37:38;;;;;;;61.30;22.80;;;;;;;0.02;80.09;95540.56;5071291;28;20048;-66
2021/01/03 08:40:21;;;;;;;54.90;21.13;;;;;;;0.11;80.13;95534.41;5071026;28;20040;-66
2021/01/03 08:42:55;;;;;;;69.22;23.70;;;;;;;0.09;80.12;95536.53;5070622;28;20049;-66
2021/01/03 08:45:27;;;;;;;65.88;23.58;;;;;;;0.07;80.30;95541.34;5071350;28;20052;-66
2021/01/03 08:47:54;;;;;;;58.85;21.17;;;;;;;0.10;80.42;95542.69;5069120;28;20491;-66
2021/01/03 08:50:23;;;;;;;60.47;22.77;;;;;;;0.06;80.48;95547.78;5071036;28;20045;-66
2021/01/03 08:52:58;;;;;;;66.25;23.58;;;;;;;0.08;80.71;95545.63;5070426;28;20528;-66
2021/01/03 08:55:26;;;;;;;64.13;21.42;;;;;;;0.18;80.58;95553.66;5070450;28;20056;-66
2021/01/03 08:58:02;;;;;;;68.72;24.17;;;;;;;0.14;80.60;95552.56;5071170;28;20048;-66
2021/01/03 09:00:32;;;;;;;65.35;22.20;;;;;;;0.15;80.68;95556.84;5069983;28;20040;-66
2021/01/03 09:02:59;;;;;;;65.35;22.42;;;;;;;0.16;80.47;95555.00;5071414;28;20044;-66
2021/01/03 09:05:29;;;;;;;67.82;24.08;;;;;;;0.23;80.46;95556.31;5069780;28;20411;-66
2021/01/03 09:07:55;;;;;;;68.78;24.15;;;;;;;0.27;80.39;95561.13;5071244;28;20500;-66
2021/01/03 09:10:27;;;;;;;68.18;22.67;;;;;;;0.34;80.44;95569.66;5069783;28;20067;-66
2021/01/03 09:13:05;;;;;;;61.78;23.08;;;;;;;0.30;80.17;95568.59;5070886;28;20049;-66
2021/01/03 09:15:34;;;;;;;55.78;21.02;;;;;;;0.30;80.00;95574.75;5070674;28;20051;-66
2021/01/03 09:18:07;;;;;;;61.95;22.42;;;;;;;0.23;79.95;95572.38;5068847;28;20071;-66
2021/01/03 09:20:38;;;;;;;64.88;21.63;;;;;;;0.27;80.03;95582.56;5071128;28;20499;-66
2021/01/03 09:23:09;;;;;;;65.47;20.67;;;;;;;0.22;80.20;95584.16;5069079;28;20036;-68
2021/01/03 09:25:37;;;;;;;54.35;21.50;;;;;;;0.30;80.10;95585.47;5070420;28;20404;-67
2021/01/03 09:28:11;;;;;;;55.05;21.67;;;;;;;0.35;79.96;95593.50;5069454;28;20049;-67
2021/01/03 09:30:39;;;;;;;57.45;20.20;;;;;;;0.31;79.77;95586.28;5069487;28;20129;-67
2021/01/03 09:33:12;;;;;;;56.33;20.33;;;;;;;0.33;79.91;95600.22;5066374;28;20140;-67
2021/01/03 09:35:59;;;;;;;64.20;22.73;;;;;;;0.33;79.81;95600.22;5066765;28;20094;-67
2021/01/03 09:39:03;;;;;;;57.95;21.23;;;;;;;0.37;79.80;95606.63;5067087;28;20051;-67
2021/01/03 09:41:58;;;;;;;56.13;19.45;;;;;;;0.35;79.69;95609.56;5066576;28;20056;-67
2021/01/03 09:44:35;;;;;;;54.28;20.42;;;;;;;0.42;79.71;95609.31;5066345;28;20796;-67
2021/01/03 09:47:04;;;;;;;58.67;19.98;;;;;;;0.44;79.39;95617.84;5065689;28;20051;-68
2021/01/03 09:49:41;;;;;;;54.55;20.35;;;;;;;0.48;79.59;95610.88;5066223;28;20067;-67
2021/01/03 09:52:17;;;;;;;55.70;19.73;;;;;;;0.44;79.15;95612.50;5066916;28;20078;-67
2021/01/03 09:54:52;;;;;;;56.72;20.40;;;;;;;0.40;79.15;95611.44;5065465;28;20052;-67
2021/01/03 09:57:34;;;;;;;58.05;20.98;;;;;;;0.41;79.36;95615.72;5066332;28;20534;-67
2021/01/03 10:00:05;;;;;;;52.13;20.17;;;;;;;0.32;79.44;95620.03;5063301;28;20045;-67
2021/01/03 10:02:31;;;;;;;58.08;21.92;;;;;;;0.23;79.59;95611.75;5064314;28;20059;-67
2021/01/03 10:04:57;;;;;;;58.47;21.10;;;;;;;0.29;79.86;95607.19;5065196;28;20048;-67
2021/01/03 10:07:26;;;;;;;52.67;20.58;;;;;;;0.37;79.76;95595.91;5063320;28;20048;-67
2021/01/03 10:09:54;;;;;;;53.55;20.58;;;;;;;0.38;79.53;95603.69;5063672;28;20048;-68
2021/01/03 10:12:27;;;;;;;44.38;18.55;;;;;;;0.44;79.46;95601.78;5065047;28;20091;-67
2021/01/03 10:15:16;;;;;;;59.13;20.85;;;;;;;0.41;79.18;95608.47;5068725;28;20060;-68
2021/01/03 10:17:53;;;;;;;50.33;19.27;;;;;;;0.47;79.29;95611.94;5047871;28;20538;-68
2021/01/03 10:20:37;;;;;;;54.03;20.27;;;;;;;0.49;78.80;95615.16;5035596;28;20128;-68
2021/01/03 10:23:03;;;;;;;52.30;19.83;;;;;;;0.49;78.95;95615.97;5038365;28;20452;-68
2021/01/03 10:25:29;;;;;;;52.53;20.02;;;;;;;0.53;78.70;95605.53;5038041;28;20053;-67
2021/01/03 10:28:05;;;;;;;47.83;19.38;;;;;;;0.50;78.60;95608.72;5038710;28;20507;-67
2021/01/03 10:30:32;;;;;;;48.65;17.95;;;;;;;0.58;78.49;95608.19;5068103;28;20064;-67
2021/01/03 10:32:58;;;;;;;52.95;19.23;;;;;;;0.63;78.18;95610.03;5068914;28;20062;-67
2021/01/03 10:35:24;;;;;;;50.92;18.23;;;;;;;0.54;78.00;95609.78;5067680;28;20403;-67
2021/01/03 10:37:50;;;;;;;56.63;20.20;;;;;;;0.49;78.32;95610.59;5068392;28;20052;-67
2021/01/03 10:40:17;;;;;;;54.17;20.00;;;;;;;0.59;78.33;95604.41;5068282;28;20054;-67
2021/01/03 10:42:43;;;;;;;57.55;18.90;;;;;;;0.62;78.55;95598.50;5067688;28;20458;-67
2021/01/03 10:45:11;;;;;;;49.97;19.42;;;;;;;0.57;78.38;95601.19;5067192;28;20055;-67
2021/01/03 10:47:37;;;;;;;58.60;20.58;;;;;;;0.52;78.38;95599.38;5066514;28;20060;-67
2021/01/03 10:50:04;;;;;;;52.13;20.00;;;;;;;0.53;78.41;95600.16;5067260;28;20052;-68
2021/01/03 10:52:30;;;;;;;56.42;21.63;;;;;;;0.34;78.82;95596.44;5066706;28;20063;-67
2021/01/03 10:54:56;;;;;;;57.35;20.83;;;;;;;0.25;79.61;95591.63;5067901;28;20048;-67
2021/01/03 10:57:22;;;;;;;62.08;20.30;;;;;;;0.39;79.65;95593.75;5067450;28;20044;-67
2021/01/03 10:59:48;;;;;;;55.42;19.23;;;;;;;0.41;79.62;95592.41;5067955;28;20055;-67
2021/01/03 11:02:14;;;;;;;56.83;20.65;;;;;;;0.42;79.61;95598.59;5067263;28;20052;-67
2021/01/03 11:04:41;;;;;;;62.45;20.80;;;;;;;0.43;79.59;95590.28;5067853;28;20063;-67
2021/01/03 11:07:06;;;;;;;56.88;19.92;;;;;;;0.43;79.52;95594.84;5066579;28;20048;-68
2021/01/03 11:09:35;;;;;;;61.60;20.63;;;;;;;0.53;79.74;95594.81;5067413;28;20052;-67
2021/01/03 11:12:02;;;;;;;62.13;21.67;;;;;;;0.50;79.69;95588.09;5066973;28;20059;-67
2021/01/03 11:14:28;;;;;;;57.95;20.58;;;;;;;0.41;80.34;95591.59;5066822;28;20040;-67
2021/01/03 11:16:55;;;;;;;59.33;19.73;;;;;;;0.48;80.25;95590.25;5067539;28;20067;-67
2021/01/03 11:19:21;;;;;;;55.80;20.65;;;;;;;0.61;80.34;95596.91;5066867;28;20052;-68
2021/01/03 11:21:53;;;;;;;60.55;20.42;;;;;;;0.60;79.74;95597.97;5067577;28;20531;-67
2021/01/03 11:24:19;;;;;;;58.40;20.25;;;;;;;0.62;79.72;95598.50;5065380;28;20045;-67
2021/01/03 11:26:45;;;;;;;59.42;21.05;;;;;;;0.68;79.65;95584.03;5067486;28;20056;-67
2021/01/03 11:29:14;;;;;;;56.47;20.27;;;;;;;0.77;79.24;95578.88;5066567;28;20519;-68
2021/01/03 11:31:42;;;;;;;62.50;20.73;;;;;;;0.82;79.34;95580.75;5065055;28;20044;-68
2021/01/03 11:34:12;;;;;;;61.78;20.50;;;;;;;0.85;79.37;95583.69;5066397;28;20055;-68